createdAt,value
2023-05-10T00:00:01.860Z,95.40
2023-05-10T00:05:15.293Z,95.30
2023-05-10T00:10:17.313Z,95.40
2023-05-10T00:15:19.640Z,95.30
2023-05-10T00:20:21.451Z,95.30
2023-05-10T00:25:23.293Z,95.20
2023-05-10T00:30:28.313Z,95.20
2023-05-10T00:35:33.684Z,95.20
2023-05-10T00:40:37.898Z,95.20
2023-05-10T00:45:44.464Z,95.20
2023-05-10T00:50:47.498Z,95.20
2023-05-10T00:55:49.599Z,95.20
2023-05-10T01:00:53.224Z,95.20
2023-05-10T01:05:55.405Z,95.20
2023-05-10T01:10:57.959Z,95.20
2023-05-10T01:16:02.829Z,95.20
2023-05-10T01:21:33.100Z,95.10
2023-05-10T01:26:50.504Z,95.20
2023-05-10T01:32:12.601Z,95.10
2023-05-10T01:37:26.280Z,95.20
2023-05-10T01:42:34.760Z,95.20
2023-05-10T01:47:55.320Z,95.10
2023-05-10T01:52:59.899Z,95.10
2023-05-10T01:58:09.797Z,95.10
2023-05-10T02:03:13.167Z,95.20
2023-05-10T02:08:18.448Z,95.20
2023-05-10T02:13:21.216Z,95.20
2023-05-10T02:18:24.922Z,95.30
2023-05-10T02:23:27.751Z,95.30
2023-05-10T02:28:30.729Z,95.30
2023-05-10T02:33:33.500Z,95.30
2023-05-10T02:38:37.606Z,95.30
2023-05-10T02:43:41.721Z,95.30
2023-05-10T02:48:43.591Z,95.30
2023-05-10T02:53:48.094Z,95.60
2023-05-10T02:58:49.959Z,95.30
2023-05-10T03:03:51.951Z,95.20
2023-05-10T03:08:54.036Z,95.30
2023-05-10T03:14:24.647Z,95.40
2023-05-10T03:19:43.585Z,95.50
2023-05-10T03:24:47.765Z,95.40
2023-05-10T03:29:50.451Z,95.40
2023-05-10T03:34:52.473Z,95.30
2023-05-10T03:39:55.199Z,95.30
2023-05-10T03:44:57.528Z,95.30
2023-05-10T03:50:00.377Z,95.30
2023-05-10T03:55:04.677Z,95.40
2023-05-10T04:00:07.455Z,95.40
2023-05-10T04:05:16.261Z,95.40
2023-05-10T04:10:18.711Z,95.50
2023-05-10T04:15:21.242Z,95.40
2023-05-10T04:20:23.108Z,95.50
2023-05-10T04:25:25.094Z,95.60
2023-05-10T04:30:29.462Z,95.60
2023-05-10T04:35:31.365Z,95.60
2023-05-10T04:40:33.527Z,95.60
2023-05-10T04:45:35.709Z,95.60
2023-05-10T04:50:38.063Z,95.70
2023-05-10T04:55:40.065Z,95.60
2023-05-10T05:00:42.740Z,95.60
2023-05-10T05:05:45.814Z,95.60
2023-05-10T05:10:51.259Z,95.60
2023-05-10T05:15:53.243Z,95.70
2023-05-10T05:20:55.224Z,95.70
2023-05-10T05:25:57.391Z,95.70
2023-05-10T05:30:59.362Z,95.70
2023-05-10T05:36:05.873Z,95.70
2023-05-10T05:41:07.843Z,95.70
2023-05-10T05:46:09.947Z,95.70
2023-05-10T05:51:15.121Z,95.70
2023-05-10T05:56:18.551Z,95.70
2023-05-10T06:01:20.815Z,95.70
2023-05-10T06:06:22.719Z,95.80
2023-05-10T06:11:24.956Z,95.80
2023-05-10T06:16:27.077Z,95.80
2023-05-10T06:21:28.930Z,95.80
2023-05-10T06:26:30.937Z,95.80
2023-05-10T06:31:32.932Z,95.80
2023-05-10T06:36:35.169Z,95.90
2023-05-10T06:41:37.215Z,95.90
2023-05-10T06:46:39.142Z,95.90
2023-05-10T06:51:41.222Z,96.00
2023-05-10T06:56:43.129Z,96.00
2023-05-10T07:01:45.035Z,95.90
2023-05-10T07:06:47.479Z,95.90
2023-05-10T07:11:49.298Z,95.90
2023-05-10T07:16:51.116Z,95.90
2023-05-10T07:21:53.078Z,95.90
2023-05-10T07:26:54.959Z,95.90
2023-05-10T07:31:58.823Z,96.00
2023-05-10T07:37:01.528Z,95.90
2023-05-10T07:42:03.873Z,95.90
2023-05-10T07:47:05.757Z,95.90
2023-05-10T07:52:07.641Z,95.90
2023-05-10T07:57:09.482Z,95.80
2023-05-10T08:02:11.325Z,95.90
2023-05-10T08:07:13.176Z,95.90
2023-05-10T08:12:14.988Z,95.80
2023-05-10T08:17:20.062Z,95.80
2023-05-10T08:22:22.449Z,95.80
2023-05-10T08:27:24.281Z,95.80
2023-05-10T08:32:26.270Z,95.70
2023-05-10T08:37:31.084Z,95.70
2023-05-10T08:42:37.189Z,95.70
2023-05-10T08:47:40.113Z,95.80
2023-05-10T08:52:42.793Z,95.70
2023-05-10T08:57:44.688Z,95.70
2023-05-10T09:02:49.298Z,95.70
2023-05-10T09:07:51.137Z,95.60
2023-05-10T09:12:54.177Z,95.60
2023-05-10T09:17:56.558Z,95.80
2023-05-10T09:22:58.443Z,96.10
2023-05-10T09:28:00.883Z,95.90
2023-05-10T09:33:03.426Z,95.90
2023-05-10T09:38:06.431Z,95.80
2023-05-10T09:43:09.394Z,95.80
2023-05-10T09:48:11.262Z,95.80
2023-05-10T09:53:16.877Z,95.70
2023-05-10T09:58:18.765Z,95.90
2023-05-10T10:03:22.208Z,95.90
2023-05-10T10:08:24.177Z,95.90
2023-05-10T10:13:26.179Z,95.80
2023-05-10T10:18:29.633Z,95.80
2023-05-10T10:23:31.704Z,95.80
2023-05-10T10:28:57.828Z,95.80
2023-05-10T10:34:20.598Z,95.80
2023-05-10T10:39:22.621Z,95.90
2023-05-10T10:44:28.474Z,95.90
2023-05-10T10:49:34.760Z,95.90
2023-05-10T10:54:36.592Z,95.90
2023-05-10T10:59:44.315Z,95.90
2023-05-10T11:04:47.671Z,95.90
2023-05-10T11:09:49.769Z,95.90
2023-05-10T11:14:52.466Z,95.70
2023-05-10T11:20:09.117Z,95.70
2023-05-10T11:25:11.340Z,95.50
2023-05-10T11:30:13.843Z,95.40
2023-05-10T11:35:15.836Z,95.20
2023-05-10T11:40:18.093Z,95.20
2023-05-10T11:45:20.373Z,95.10
2023-05-10T11:50:22.453Z,95.00
2023-05-10T11:55:25.354Z,95.00
2023-05-10T12:00:27.340Z,95.00
2023-05-10T12:05:32.348Z,94.80
2023-05-10T12:10:35.915Z,94.90
2023-05-10T12:15:37.882Z,94.80
2023-05-10T12:20:40.766Z,94.70
2023-05-10T12:25:42.724Z,94.60
2023-05-10T12:30:45.448Z,94.60
2023-05-10T12:35:54.151Z,94.60
2023-05-10T12:40:57.460Z,94.50
2023-05-10T12:45:59.930Z,94.50
2023-05-10T12:51:03.408Z,94.30
2023-05-10T12:56:05.986Z,94.20
2023-05-10T13:01:07.995Z,94.10
2023-05-10T13:06:09.960Z,94.00
2023-05-10T13:11:12.012Z,94.00
2023-05-10T13:16:14.035Z,94.00
2023-05-10T13:21:16.268Z,94.00
2023-05-10T13:26:18.196Z,93.90
2023-05-10T13:31:20.175Z,93.90
2023-05-10T13:36:22.345Z,94.00
2023-05-10T13:41:24.370Z,93.90
2023-05-10T13:46:26.230Z,93.90
2023-05-10T13:51:28.422Z,93.80
2023-05-10T13:56:30.500Z,93.70
2023-05-10T14:01:32.526Z,93.70
2023-05-10T14:06:35.013Z,93.50
2023-05-10T14:11:37.084Z,93.60
2023-05-10T14:16:39.210Z,93.50
2023-05-10T14:21:41.399Z,93.50
2023-05-10T14:26:43.407Z,93.40
2023-05-10T14:31:46.424Z,93.50
2023-05-10T14:36:48.413Z,93.40
2023-05-10T14:41:52.416Z,93.40
2023-05-10T14:46:54.339Z,93.40
2023-05-10T14:51:56.224Z,93.40
2023-05-10T14:56:58.196Z,93.30
2023-05-10T15:02:00.465Z,93.30
2023-05-10T15:07:03.134Z,93.30
2023-05-10T15:12:05.051Z,93.20
2023-05-10T15:17:08.731Z,93.20
2023-05-10T15:22:11.566Z,93.20
2023-05-10T15:27:13.422Z,93.10
2023-05-10T15:32:15.406Z,93.10
2023-05-10T15:37:17.342Z,93.00
2023-05-10T15:42:19.405Z,93.00
2023-05-10T15:47:21.465Z,92.90
2023-05-10T15:52:24.287Z,92.90
2023-05-10T15:57:26.337Z,93.00
2023-05-10T16:02:28.333Z,93.00
2023-05-10T16:07:30.346Z,92.90
2023-05-10T16:12:32.351Z,92.90
2023-05-10T16:17:34.423Z,93.00
2023-05-10T16:22:36.493Z,92.90
2023-05-10T16:27:38.473Z,93.00
2023-05-10T16:32:40.502Z,92.90
2023-05-10T16:37:42.389Z,93.00
2023-05-10T16:42:44.445Z,93.00
2023-05-10T16:47:46.699Z,92.90
2023-05-10T16:52:48.839Z,92.90
2023-05-10T16:57:51.211Z,92.90
2023-05-10T17:02:54.853Z,92.90
2023-05-10T17:07:57.139Z,93.00
2023-05-10T17:12:59.087Z,92.90
2023-05-10T17:18:01.159Z,92.90
2023-05-10T17:23:03.439Z,93.00
2023-05-10T17:28:05.554Z,92.90
2023-05-10T17:33:07.646Z,92.90
2023-05-10T17:38:09.629Z,92.90
2023-05-10T17:43:11.591Z,92.90
2023-05-10T17:48:13.612Z,93.00
2023-05-10T17:53:15.532Z,92.80
2023-05-10T17:58:17.446Z,92.80
2023-05-10T18:03:19.389Z,92.80
2023-05-10T18:08:23.209Z,92.70
2023-05-10T18:13:25.670Z,92.60
2023-05-10T18:18:27.654Z,92.60
2023-05-10T18:23:29.658Z,92.60
2023-05-10T18:28:31.535Z,92.60
2023-05-10T18:33:33.345Z,92.60
2023-05-10T18:38:35.250Z,92.50
2023-05-10T18:43:37.084Z,92.50
2023-05-10T18:48:39.020Z,92.50
2023-05-10T18:53:40.932Z,92.30
2023-05-10T18:58:42.790Z,92.30
2023-05-10T19:03:46.893Z,92.20
2023-05-10T19:08:48.758Z,92.30
2023-05-10T19:13:50.684Z,92.30
2023-05-10T19:18:52.921Z,92.40
2023-05-10T19:23:56.251Z,92.40
2023-05-10T19:28:58.230Z,92.50
2023-05-10T19:34:00.854Z,92.60
2023-05-10T19:39:03.328Z,92.70
2023-05-10T19:44:05.281Z,92.80
2023-05-10T19:49:07.171Z,92.70
2023-05-10T19:54:09.118Z,92.80
2023-05-10T19:59:10.950Z,92.70
2023-05-10T20:04:13.113Z,92.70
2023-05-10T20:09:17.833Z,92.60
2023-05-10T20:14:21.940Z,92.60
2023-05-10T20:19:23.916Z,92.60
2023-05-10T20:24:25.898Z,92.50
2023-05-10T20:29:27.719Z,92.60
2023-05-10T20:34:29.818Z,92.60
2023-05-10T20:39:31.629Z,92.70
2023-05-10T20:44:33.861Z,92.60
2023-05-10T20:49:37.868Z,92.60
2023-05-10T20:54:39.791Z,92.70
2023-05-10T20:59:41.991Z,92.60
2023-05-10T21:04:44.139Z,92.60
2023-05-10T21:09:45.936Z,92.60
2023-05-10T21:14:47.801Z,92.50
2023-05-10T21:19:50.322Z,92.60
2023-05-10T21:24:52.196Z,92.70
2023-05-10T21:29:54.081Z,92.70
2023-05-10T21:34:55.994Z,92.80
2023-05-10T21:39:57.812Z,92.70
2023-05-10T21:44:59.622Z,92.70
2023-05-10T21:50:01.502Z,92.70
2023-05-10T21:55:04.385Z,92.60
2023-05-10T22:00:07.228Z,92.70
2023-05-10T22:05:10.495Z,92.60
2023-05-10T22:10:12.494Z,92.60
2023-05-10T22:15:14.415Z,92.60
2023-05-10T22:20:16.502Z,92.50
2023-05-10T22:25:20.850Z,92.60
2023-05-10T22:30:22.815Z,92.60
2023-05-10T22:35:24.704Z,92.90
2023-05-10T22:40:26.931Z,92.60
2023-05-10T22:45:28.777Z,92.60
2023-05-10T22:50:31.808Z,92.60
2023-05-10T22:55:33.934Z,92.60
2023-05-10T23:00:35.786Z,92.50
2023-05-10T23:05:37.623Z,92.60
2023-05-10T23:10:39.592Z,92.60
2023-05-10T23:15:43.489Z,92.60
2023-05-10T23:20:45.578Z,92.60
2023-05-10T23:25:47.617Z,92.60
2023-05-10T23:31:03.678Z,92.80
2023-05-10T23:36:05.725Z,92.60
2023-05-10T23:41:07.590Z,92.60
2023-05-10T23:46:09.431Z,92.50
2023-05-10T23:51:14.055Z,92.50
2023-05-10T23:56:18.898Z,92.50
